Time;durP1;ratioP1;P1;durP2;ratioP2;P2;SDS_P1;SDS_P2;PMS_P1;PMS_P2;Temp;Humidity;BMP_temperature;BMP_pressure;BME280_temperature;BME280_humidity;BME280_pressure;Samples;Min_cycle;Max_cycle;Signal;HPM_P1;HPM_P2
2021/05/27 04:11:24;;;;;;;0.80;0.80;;;10.90;99.90;;;;;;5507554;23;20224;-67
2021/05/27 04:13:52;;;;;;;0.73;0.73;;;10.90;99.90;;;;;;4974146;28;20205;-67
2021/05/27 04:16:21;;;;;;;0.60;0.60;;;10.90;99.90;;;;;;4973656;28;20215;-65
2021/05/27 04:18:48;;;;;;;0.70;0.70;;;10.90;99.90;;;;;;4973859;28;20292;-66
2021/05/27 04:21:18;;;;;;;0.70;0.70;;;10.90;99.90;;;;;;4973862;28;20229;-65
2021/05/27 04:23:46;;;;;;;0.70;0.70;;;11.00;99.90;;;;;;4973683;28;20205;-67
2021/05/27 04:26:16;;;;;;;0.80;0.80;;;11.00;99.90;;;;;;4974304;28;20204;-69
2021/05/27 04:28:45;;;;;;;0.80;0.80;;;11.00;99.90;;;;;;4974017;28;20251;-68
2021/05/27 04:31:16;;;;;;;0.63;0.63;;;11.00;99.90;;;;;;4973581;28;20267;-70
2021/05/27 04:33:52;;;;;;;0.80;0.80;;;11.20;99.90;;;;;;4973898;28;20212;-68
2021/05/27 04:36:21;;;;;;;0.70;0.70;;;11.20;99.90;;;;;;4973457;28;20308;-69
2021/05/27 04:38:49;;;;;;;0.70;0.70;;;11.20;99.90;;;;;;4973999;28;20200;-68
2021/05/27 04:41:17;;;;;;;0.70;0.70;;;11.40;99.90;;;;;;4973137;28;20229;-68
2021/05/27 04:43:47;;;;;;;0.70;0.70;;;11.60;99.90;;;;;;4973353;28;20209;-68
2021/05/27 04:46:14;;;;;;;0.77;0.77;;;11.70;99.90;;;;;;4973406;28;20201;-68
2021/05/27 04:48:42;;;;;;;0.70;0.70;;;11.90;99.90;;;;;;4973369;28;20219;-70
2021/05/27 04:51:09;;;;;;;0.77;0.77;;;11.90;99.90;;;;;;4973217;28;20698;-69
2021/05/27 04:53:36;;;;;;;0.70;0.70;;;11.90;99.90;;;;;;4973489;28;20263;-68
2021/05/27 04:56:05;;;;;;;0.60;0.60;;;12.00;99.90;;;;;;4973152;28;20244;-68
2021/05/27 04:58:33;;;;;;;0.70;0.70;;;12.10;99.90;;;;;;4973509;28;20205;-68
2021/05/27 05:01:01;;;;;;;0.70;0.70;;;12.20;99.90;;;;;;4973249;28;20291;-68
2021/05/27 05:03:28;;;;;;;0.70;0.70;;;12.30;99.90;;;;;;4973425;28;20240;-69
2021/05/27 05:05:56;;;;;;;0.70;0.70;;;12.30;99.90;;;;;;4967938;28;20205;-70
2021/05/27 05:08:24;;;;;;;0.70;0.70;;;12.20;99.90;;;;;;4973196;28;20263;-69
2021/05/27 05:10:51;;;;;;;0.80;0.80;;;12.40;99.90;;;;;;4953508;29;20229;-70
2021/05/27 05:13:19;;;;;;;0.70;0.70;;;12.40;99.90;;;;;;4954216;29;20264;-68
2021/05/27 05:15:47;;;;;;;0.70;0.70;;;12.50;99.90;;;;;;4953768;29;20257;-69
2021/05/27 05:18:16;;;;;;;0.70;0.70;;;12.60;99.90;;;;;;4952895;29;20662;-69
2021/05/27 05:20:45;;;;;;;0.70;0.70;;;12.50;99.90;;;;;;4953896;29;20225;-68
2021/05/27 05:23:13;;;;;;;0.70;0.70;;;12.50;99.90;;;;;;4953579;29;20209;-68
2021/05/27 05:25:41;;;;;;;0.70;0.70;;;12.60;99.90;;;;;;4953690;29;20632;-68
2021/05/27 05:28:11;;;;;;;0.60;0.60;;;12.40;99.90;;;;;;4953658;29;20670;-69
2021/05/27 05:30:39;;;;;;;0.60;0.60;;;12.50;99.90;;;;;;4953585;28;20232;-68
2021/05/27 05:33:06;;;;;;;0.70;0.70;;;12.50;99.90;;;;;;4953693;29;20633;-68
2021/05/27 05:35:35;;;;;;;0.70;0.70;;;12.60;99.90;;;;;;4954451;28;20229;-69
2021/05/27 05:38:02;;;;;;;0.60;0.60;;;12.60;99.90;;;;;;4957222;29;20264;-68
2021/05/27 05:40:30;;;;;;;0.70;0.70;;;12.70;99.90;;;;;;4957474;29;20225;-68
2021/05/27 05:42:58;;;;;;;0.60;0.60;;;12.60;99.90;;;;;;4957179;29;20242;-68
2021/05/27 05:45:27;;;;;;;0.70;0.70;;;12.60;99.90;;;;;;4957192;29;20213;-68
2021/05/27 05:47:57;;;;;;;0.80;0.80;;;12.80;99.90;;;;;;4957177;29;20201;-68
2021/05/27 05:53:14;;;;;;;0.70;0.70;;;12.90;99.90;;;;;;4957328;28;20628;-69
2021/05/27 05:55:42;;;;;;;0.60;0.60;;;13.10;99.90;;;;;;4957108;29;20276;-69
2021/05/27 05:58:09;;;;;;;0.70;0.70;;;13.20;99.90;;;;;;4957364;29;20209;-69
2021/05/27 06:00:38;;;;;;;0.50;0.50;;;13.20;99.90;;;;;;4957003;29;20249;-68
2021/05/27 06:03:06;;;;;;;0.70;0.70;;;13.30;99.90;;;;;;4956853;29;20209;-69
2021/05/27 06:05:34;;;;;;;0.60;0.60;;;13.40;99.90;;;;;;4956718;29;20209;-69
2021/05/27 06:08:01;;;;;;;0.60;0.60;;;13.30;99.90;;;;;;4956913;29;20662;-69
2021/05/27 06:10:29;;;;;;;0.60;0.60;;;13.40;99.90;;;;;;4956571;29;20217;-68
2021/05/27 06:12:57;;;;;;;0.50;0.50;;;13.40;99.90;;;;;;4956722;29;20205;-69
2021/05/27 06:15:25;;;;;;;0.60;0.60;;;13.60;99.90;;;;;;4956666;29;20245;-69
2021/05/27 06:17:56;;;;;;;0.70;0.70;;;13.60;99.90;;;;;;4956715;29;20673;-69
2021/05/27 06:20:24;;;;;;;0.60;0.60;;;13.40;99.90;;;;;;4956725;29;20666;-68
2021/05/27 06:22:51;;;;;;;0.60;0.60;;;13.50;99.90;;;;;;4956765;29;20248;-68
2021/05/27 06:25:21;;;;;;;0.70;0.70;;;13.50;99.90;;;;;;4956262;29;20210;-68
2021/05/27 06:27:50;;;;;;;0.60;0.60;;;13.60;99.90;;;;;;4956460;29;20209;-68
2021/05/27 06:30:18;;;;;;;0.70;0.70;;;13.60;99.90;;;;;;4956255;29;20209;-68
2021/05/27 06:32:46;;;;;;;0.60;0.60;;;13.70;99.90;;;;;;4956243;28;20209;-69
2021/05/27 06:35:15;;;;;;;0.70;0.70;;;13.60;99.90;;;;;;4955961;29;20209;-69
2021/05/27 06:37:43;;;;;;;0.50;0.50;;;13.60;99.90;;;;;;4956354;29;20264;-68
2021/05/27 06:40:13;;;;;;;0.70;0.70;;;13.80;99.90;;;;;;4956208;28;20296;-69
2021/05/27 06:42:41;;;;;;;0.65;0.65;;;13.80;99.90;;;;;;4956077;29;20205;-69
2021/05/27 06:45:11;;;;;;;0.70;0.70;;;13.80;99.90;;;;;;4956578;29;20205;-68
2021/05/27 06:47:38;;;;;;;0.50;0.50;;;13.80;99.90;;;;;;4956379;28;20205;-68
2021/05/27 06:50:12;;;;;;;0.60;0.60;;;14.20;99.90;;;;;;4956314;29;20206;-68
2021/05/27 06:52:39;;;;;;;0.60;0.60;;;14.10;99.90;;;;;;4956170;29;20225;-69
2021/05/27 06:55:08;;;;;;;0.60;0.60;;;14.10;99.90;;;;;;4956116;29;20205;-68
2021/05/27 06:57:35;;;;;;;0.60;0.60;;;13.90;99.90;;;;;;4956161;28;20256;-69
2021/05/27 07:00:06;;;;;;;0.60;0.60;;;13.80;99.90;;;;;;4956151;29;20209;-68
2021/05/27 07:02:34;;;;;;;0.60;0.60;;;13.90;99.90;;;;;;4955702;28;20761;-69
2021/05/27 07:05:02;;;;;;;0.60;0.60;;;13.90;99.90;;;;;;4955891;29;20641;-68
2021/05/27 07:07:29;;;;;;;0.60;0.60;;;14.00;99.90;;;;;;4955561;29;20280;-69
2021/05/27 07:09:57;;;;;;;0.68;0.68;;;14.10;99.90;;;;;;4955706;29;20212;-69
2021/05/27 07:12:25;;;;;;;0.60;0.60;;;14.00;99.90;;;;;;4955472;29;20320;-69
2021/05/27 07:14:55;;;;;;;0.70;0.70;;;14.10;99.90;;;;;;4955664;29;20652;-69
2021/05/27 07:17:22;;;;;;;0.60;0.60;;;14.20;99.90;;;;;;4955423;29;20213;-68
2021/05/27 07:19:52;;;;;;;0.60;0.60;;;14.30;99.90;;;;;;4955540;29;20209;-69
2021/05/27 07:22:19;;;;;;;0.60;0.60;;;14.20;99.90;;;;;;4955437;29;20613;-69
2021/05/27 07:24:47;;;;;;;0.60;0.60;;;14.30;99.90;;;;;;4955430;29;20264;-69
2021/05/27 07:27:14;;;;;;;0.60;0.60;;;14.60;99.90;;;;;;4955140;29;20209;-69
2021/05/27 07:29:43;;;;;;;0.60;0.60;;;14.60;99.90;;;;;;4955278;29;20621;-69
2021/05/27 07:32:10;;;;;;;0.70;0.70;;;14.70;99.90;;;;;;4955288;29;20225;-69
2021/05/27 07:34:38;;;;;;;0.50;0.50;;;14.70;99.90;;;;;;4955113;29;20241;-69
2021/05/27 07:37:06;;;;;;;0.60;0.60;;;14.70;99.90;;;;;;4955484;29;20617;-70
2021/05/27 07:39:33;;;;;;;0.60;0.60;;;14.70;99.90;;;;;;4955365;29;20253;-69
2021/05/27 07:42:04;;;;;;;0.50;0.50;;;14.70;99.90;;;;;;4955129;28;20228;-69
2021/05/27 07:44:31;;;;;;;0.60;0.60;;;14.80;99.90;;;;;;4955093;28;20205;-69
2021/05/27 07:46:58;;;;;;;0.55;0.55;;;14.80;99.90;;;;;;4954910;29;20272;-69
2021/05/27 07:49:27;;;;;;;0.60;0.60;;;14.80;99.90;;;;;;4954880;29;20753;-70
2021/05/27 07:51:54;;;;;;;0.50;0.50;;;14.90;99.90;;;;;;4954723;28;20232;-69
2021/05/27 07:54:23;;;;;;;0.50;0.50;;;15.10;99.90;;;;;;4954840;29;20661;-69
2021/05/27 07:56:51;;;;;;;0.50;0.50;;;15.20;99.90;;;;;;4954645;29;20720;-69
2021/05/27 07:59:18;;;;;;;0.60;0.60;;;15.10;99.80;;;;;;4954225;28;20741;-69
2021/05/27 08:01:47;;;;;;;0.60;0.60;;;15.20;99.70;;;;;;4954854;28;20773;-68
2021/05/27 08:04:14;;;;;;;0.50;0.50;;;15.40;99.50;;;;;;4954896;29;20256;-69
2021/05/27 08:06:41;;;;;;;0.50;0.50;;;15.40;99.90;;;;;;4954696;29;20202;-69
2021/05/27 08:09:10;;;;;;;0.50;0.50;;;15.50;99.90;;;;;;4954549;29;20205;-69
2021/05/27 08:11:40;;;;;;;0.60;0.60;;;15.70;99.00;;;;;;4954494;29;20661;-69
2021/05/27 08:14:07;;;;;;;0.50;0.50;;;15.80;98.90;;;;;;4954346;29;20666;-70
2021/05/27 08:16:34;;;;;;;0.50;0.50;;;15.90;98.30;;;;;;4954312;29;20237;-69
2021/05/27 08:19:03;;;;;;;0.50;0.50;;;15.80;98.20;;;;;;4954596;29;20240;-69
2021/05/27 08:21:31;;;;;;;0.50;0.50;;;15.80;97.70;;;;;;4954633;28;20220;-70
2021/05/27 08:24:00;;;;;;;0.50;0.50;;;15.90;97.50;;;;;;4954513;28;20202;-69
2021/05/27 08:26:27;;;;;;;0.40;0.40;;;16.00;97.30;;;;;;4954238;28;20276;-70
2021/05/27 08:28:55;;;;;;;0.50;0.50;;;16.20;97.90;;;;;;4954194;29;20256;-67
2021/05/27 08:31:23;;;;;;;0.50;0.50;;;16.30;96.90;;;;;;4954876;29;20236;-69
2021/05/27 08:33:50;;;;;;;0.50;0.50;;;16.40;96.20;;;;;;4954362;29;20256;-69
2021/05/27 08:36:18;;;;;;;0.50;0.50;;;16.50;96.50;;;;;;4954096;29;20205;-69
2021/05/27 08:38:45;;;;;;;0.50;0.50;;;16.60;95.80;;;;;;4954345;29;20255;-69
2021/05/27 08:41:16;;;;;;;0.60;0.60;;;16.70;95.40;;;;;;4953961;29;20279;-69
2021/05/27 08:43:43;;;;;;;0.50;0.50;;;16.50;95.30;;;;;;4954103;29;20264;-70
2021/05/27 08:46:11;;;;;;;0.50;0.50;;;16.60;95.00;;;;;;4954091;29;20209;-69
2021/05/27 08:48:41;;;;;;;0.40;0.40;;;16.50;94.10;;;;;;4954325;29;20658;-70
2021/05/27 08:51:08;;;;;;;0.40;0.40;;;16.60;94.20;;;;;;4954316;29;20222;-67
2021/05/27 08:53:36;;;;;;;0.50;0.50;;;16.70;94.70;;;;;;4954122;29;20209;-68
2021/05/27 08:56:04;;;;;;;0.50;0.50;;;16.80;93.60;;;;;;4953840;29;20264;-71
2021/05/27 08:58:31;;;;;;;0.60;0.60;;;16.90;93.00;;;;;;4953884;28;20209;-68
2021/05/27 09:00:59;;;;;;;0.50;0.50;;;17.00;91.80;;;;;;4953990;29;20276;-68
2021/05/27 09:03:40;;;;;;;0.60;0.60;;;17.20;91.60;;;;;;4954047;29;20197;-68
2021/05/27 09:06:09;;;;;;;0.40;0.40;;;17.50;92.10;;;;;;4953774;29;20240;-68
2021/05/27 09:08:38;;;;;;;0.50;0.50;;;17.70;91.50;;;;;;4953754;29;20252;-71
2021/05/27 09:11:07;;;;;;;0.40;0.40;;;18.00;91.40;;;;;;4955474;28;20674;-68
2021/05/27 09:13:36;;;;;;;0.40;0.40;;;17.80;89.30;;;;;;4957899;28;20632;-68
2021/05/27 09:16:09;;;;;;;0.50;0.50;;;17.70;90.70;;;;;;4957502;29;20213;-67
2021/05/27 09:18:39;;;;;;;0.50;0.50;;;17.70;89.90;;;;;;4957688;29;20264;-68
2021/05/27 09:21:08;;;;;;;0.50;0.50;;;17.80;89.90;;;;;;4957633;29;20296;-69
2021/05/27 09:23:37;;;;;;;0.40;0.40;;;17.90;88.60;;;;;;4957590;29;20256;-67
2021/05/27 09:26:10;;;;;;;0.40;0.40;;;18.20;90.00;;;;;;4957520;29;20741;-68
2021/05/27 09:28:38;;;;;;;0.50;0.50;;;18.00;87.40;;;;;;4957738;28;20288;-67
2021/05/27 09:31:07;;;;;;;0.50;0.50;;;18.10;86.80;;;;;;4957477;29;20710;-68
2021/05/27 09:33:36;;;;;;;0.40;0.40;;;17.90;87.10;;;;;;4957317;28;20284;-68
2021/05/27 09:36:07;;;;;;;0.40;0.40;;;17.80;88.10;;;;;;4957924;28;20209;-69
2021/05/27 09:38:36;;;;;;;0.40;0.40;;;17.90;88.40;;;;;;4957642;28;20597;-68
2021/05/27 09:41:18;;;;;;;0.50;0.50;;;17.80;88.30;;;;;;4957199;29;20296;-68
2021/05/27 09:43:48;;;;;;;0.50;0.50;;;17.80;88.40;;;;;;4957487;29;20201;-69
2021/05/27 09:46:16;;;;;;;0.50;0.50;;;17.70;88.30;;;;;;4957339;28;20252;-69
2021/05/27 09:48:45;;;;;;;0.40;0.40;;;17.80;87.00;;;;;;4957401;29;20834;-69
2021/05/27 09:51:26;;;;;;;0.47;0.47;;;17.80;86.50;;;;;;4957033;28;20577;-68
2021/05/27 09:53:55;;;;;;;0.40;0.40;;;17.90;85.90;;;;;;4957137;29;20777;-68
2021/05/27 09:56:32;;;;;;;0.50;0.50;;;17.60;88.00;;;;;;4956854;29;20201;-68
2021/05/27 09:59:00;;;;;;;0.40;0.40;;;17.60;87.80;;;;;;4957295;28;20264;-68
2021/05/27 10:01:28;;;;;;;0.50;0.50;;;17.40;87.20;;;;;;4957098;29;20235;-69
2021/05/27 10:04:10;;;;;;;0.40;0.40;;;17.40;88.80;;;;;;4957003;29;20208;-68
2021/05/27 10:06:39;;;;;;;0.50;0.50;;;17.30;88.70;;;;;;4956741;29;20260;-68
2021/05/27 10:09:08;;;;;;;0.50;0.50;;;17.40;90.00;;;;;;4956729;29;20658;-69
2021/05/27 10:11:37;;;;;;;0.50;0.50;;;17.50;90.10;;;;;;4956638;29;20229;-68
2021/05/27 10:14:07;;;;;;;0.50;0.50;;;17.50;89.10;;;;;;4956676;29;20237;-69
2021/05/27 10:16:36;;;;;;;0.50;0.50;;;17.50;86.50;;;;;;4956810;28;20625;-69
2021/05/27 10:19:04;;;;;;;0.50;0.50;;;17.40;86.90;;;;;;4956624;29;20209;-68
2021/05/27 10:21:32;;;;;;;0.40;0.40;;;17.40;88.00;;;;;;4956257;28;20698;-69
2021/05/27 10:24:01;;;;;;;0.60;0.60;;;17.30;88.60;;;;;;4956751;29;20205;-68
2021/05/27 10:26:29;;;;;;;0.50;0.50;;;17.20;88.20;;;;;;4992035;23;20294;-69
2021/05/27 10:29:20;;;;;;;0.50;0.50;;;17.40;88.10;;;;;;4996082;28;20303;-69
2021/05/27 10:31:48;;;;;;;0.50;0.50;;;17.50;87.80;;;;;;4995248;28;20266;-69
2021/05/27 10:34:41;;;;;;;0.50;0.50;;;17.60;87.40;;;;;;4995194;28;20615;-69
2021/05/27 10:37:09;;;;;;;0.50;0.50;;;17.60;86.70;;;;;;4976882;28;20224;-69
2021/05/27 10:39:39;;;;;;;0.50;0.50;;;18.20;86.80;;;;;;4975434;28;20231;-71
2021/05/27 10:42:07;;;;;;;0.50;0.50;;;17.80;86.80;;;;;;4975025;28;20251;-71
2021/05/27 10:44:35;;;;;;;0.40;0.40;;;17.80;87.00;;;;;;4975576;28;20212;-70
2021/05/27 10:47:06;;;;;;;0.40;0.40;;;17.80;87.40;;;;;;4975113;28;20228;-69
2021/05/27 10:49:50;;;;;;;0.50;0.50;;;17.80;86.70;;;;;;4975408;28;20673;-69
2021/05/27 10:52:43;;;;;;;0.50;0.50;;;17.80;85.80;;;;;;4968395;28;20271;-70
2021/05/27 10:55:52;;;;;;;0.50;0.50;;;17.60;93.30;;;;;;4974965;28;20560;-70
2021/05/27 10:58:45;;;;;;;0.50;0.50;;;17.50;85.60;;;;;;4958148;28;20256;-72
2021/05/27 11:01:13;;;;;;;0.50;0.50;;;17.70;86.60;;;;;;4955604;29;20690;-70
2021/05/27 11:03:43;;;;;;;0.50;0.50;;;17.80;85.40;;;;;;4955737;29;20229;-70
2021/05/27 11:06:24;;;;;;;0.50;0.50;;;17.70;85.10;;;;;;4955409;29;20633;-71
2021/05/27 11:09:31;;;;;;;0.40;0.40;;;17.70;85.90;;;;;;4957948;28;20215;-71
2021/05/27 11:12:15;;;;;;;0.50;0.50;;;17.70;85.60;;;;;;4872290;29;20212;-71
2021/05/27 11:14:46;;;;;;;0.50;0.50;;;17.60;86.60;;;;;;4871452;29;20260;-70
2021/05/27 11:17:18;;;;;;;0.40;0.40;;;17.70;86.30;;;;;;4927894;28;20263;-70
2021/05/27 11:19:51;;;;;;;0.50;0.50;;;17.80;85.40;;;;;;4967273;28;20736;-69
2021/05/27 11:23:00;;;;;;;0.47;0.47;;;17.80;84.70;;;;;;4974627;28;20213;-69
2021/05/27 11:25:37;;;;;;;0.40;0.40;;;17.80;85.00;;;;;;4965272;28;20233;-69
2021/05/27 11:28:36;;;;;;;0.50;0.50;;;17.80;85.10;;;;;;4969313;28;20200;-68
2021/05/27 11:31:06;;;;;;;0.40;0.40;;;17.60;86.10;;;;;;4960782;28;20194;-70
2021/05/27 11:33:38;;;;;;;0.50;0.50;;;17.40;85.10;;;;;;4964201;28;20235;-69
2021/05/27 11:36:26;;;;;;;0.50;0.50;;;17.30;85.30;;;;;;4965526;28;20268;-69
2021/05/27 11:38:55;;;;;;;0.40;0.40;;;17.20;90.80;;;;;;4970953;28;20208;-69
2021/05/27 11:41:23;;;;;;;0.40;0.40;;;17.30;93.40;;;;;;4974465;28;20304;-69
2021/05/27 11:43:57;;;;;;;0.50;0.50;;;17.00;94.30;;;;;;4963355;28;20563;-69
2021/05/27 11:46:28;;;;;;;0.40;0.40;;;16.70;96.10;;;;;;4962168;28;20624;-69
2021/05/27 11:48:58;;;;;;;0.40;0.40;;;16.50;97.20;;;;;;4962872;28;20613;-69
2021/05/27 11:51:43;;;;;;;0.40;0.40;;;16.20;99.10;;;;;;4964988;28;20325;-69
2021/05/27 11:54:11;;;;;;;0.60;0.60;;;15.70;99.90;;;;;;4965020;28;20263;-70
2021/05/27 11:56:44;;;;;;;0.60;0.60;;;15.50;99.90;;;;;;4964328;28;20272;-69
2021/05/27 11:59:19;;;;;;;0.50;0.50;;;14.90;99.90;;;;;;4962744;28;20197;-70
2021/05/27 12:01:51;;;;;;;0.60;0.60;;;14.90;99.90;;;;;;4963751;28;20255;-70
2021/05/27 12:04:24;;;;;;;0.60;0.60;;;14.70;99.90;;;;;;4963403;28;20201;-70
2021/05/27 12:06:55;;;;;;;0.60;0.60;;;14.50;99.90;;;;;;4964262;28;20229;-69
2021/05/27 12:09:34;;;;;;;0.60;0.60;;;14.60;99.90;;;;;;4964932;28;20205;-70
2021/05/27 12:12:16;;;;;;;0.50;0.50;;;14.80;99.90;;;;;;4965007;28;20609;-69
2021/05/27 12:14:50;;;;;;;0.50;0.50;;;14.80;99.90;;;;;;4963793;28;20287;-69
2021/05/27 12:17:20;;;;;;;0.60;0.60;;;15.20;99.90;;;;;;4962818;28;20220;-70
2021/05/27 12:19:49;;;;;;;0.60;0.60;;;15.50;99.90;;;;;;4963319;28;20209;-69
2021/05/27 12:22:16;;;;;;;0.50;0.50;;;15.70;99.90;;;;;;4961034;28;20576;-70
2021/05/27 12:24:44;;;;;;;0.50;0.50;;;16.00;99.90;;;;;;4960441;28;20201;-69
2021/05/27 12:27:12;;;;;;;0.47;0.47;;;16.10;99.90;;;;;;4961372;28;20224;-69
2021/05/27 12:29:40;;;;;;;0.50;0.50;;;16.20;99.90;;;;;;4962597;28;20712;-68
2021/05/27 12:32:08;;;;;;;0.50;0.50;;;16.10;99.90;;;;;;4962264;28;20239;-70
2021/05/27 12:34:40;;;;;;;0.60;0.60;;;16.00;99.90;;;;;;4964144;28;20193;-69
2021/05/27 12:37:07;;;;;;;0.60;0.60;;;15.70;99.90;;;;;;4962954;28;20266;-70
2021/05/27 12:39:37;;;;;;;0.40;0.40;;;16.00;99.90;;;;;;4962471;28;20252;-69
2021/05/27 12:42:07;;;;;;;0.50;0.50;;;16.40;99.90;;;;;;4961316;28;20235;-70
2021/05/27 12:44:45;;;;;;;0.40;0.40;;;16.70;99.90;;;;;;4967495;28;20193;-69
2021/05/27 12:47:18;;;;;;;0.40;0.40;;;16.50;99.90;;;;;;4953478;28;20733;-69
2021/05/27 12:49:47;;;;;;;0.50;0.50;;;16.30;99.90;;;;;;4954196;29;20236;-69
2021/05/27 12:52:37;;;;;;;0.60;0.60;;;15.90;99.90;;;;;;4953987;29;20205;-70
2021/05/27 12:55:08;;;;;;;0.70;0.70;;;15.40;99.90;;;;;;4956400;28;20569;-70
2021/05/27 12:57:50;;;;;;;0.70;0.70;;;14.90;99.90;;;;;;4962951;28;20256;-70
2021/05/27 13:00:18;;;;;;;0.60;0.60;;;14.40;99.90;;;;;;4964254;28;20208;-69
2021/05/27 13:03:01;;;;;;;0.60;0.60;;;14.20;99.90;;;;;;4962931;28;20194;-70
2021/05/27 13:05:28;;;;;;;0.60;0.60;;;14.00;99.90;;;;;;4955898;28;20694;-69
2021/05/27 13:07:57;;;;;;;0.50;0.50;;;13.70;99.90;;;;;;4953562;28;20198;-68
2021/05/27 13:10:33;;;;;;;0.70;0.70;;;13.40;99.90;;;;;;4960463;28;20253;-70
2021/05/27 13:13:02;;;;;;;0.70;0.70;;;13.20;99.90;;;;;;4964122;28;20256;-70
2021/05/27 13:15:29;;;;;;;0.60;0.60;;;13.20;99.90;;;;;;4967912;28;20768;-70
2021/05/27 13:18:06;;;;;;;0.57;0.57;;;13.30;99.90;;;;;;4963518;28;20260;-70
2021/05/27 13:20:54;;;;;;;0.70;0.70;;;13.60;99.90;;;;;;4962900;28;20230;-71
2021/05/27 13:23:27;;;;;;;0.60;0.60;;;13.90;99.90;;;;;;4963809;28;20189;-69
2021/05/27 13:26:08;;;;;;;0.70;0.70;;;14.20;99.90;;;;;;4962868;28;20773;-70
2021/05/27 13:28:36;;;;;;;0.60;0.60;;;14.40;99.90;;;;;;4968848;28;20255;-70
2021/05/27 13:31:04;;;;;;;0.50;0.50;;;14.50;99.90;;;;;;4972516;28;20212;-68
2021/05/27 13:33:32;;;;;;;0.60;0.60;;;14.40;99.90;;;;;;4965192;28;20324;-70
2021/05/27 13:36:01;;;;;;;0.60;0.60;;;14.50;99.90;;;;;;4972633;28;20262;-68
2021/05/27 13:38:30;;;;;;;0.60;0.60;;;14.30;99.90;;;;;;4972715;28;20208;-69
2021/05/27 13:40:58;;;;;;;0.60;0.60;;;13.80;99.90;;;;;;4972819;28;20251;-69
2021/05/27 13:43:29;;;;;;;0.60;0.60;;;13.70;99.90;;;;;;4972646;28;20201;-69
2021/05/27 13:45:57;;;;;;;0.60;0.60;;;13.70;99.90;;;;;;4972743;28;20283;-69
2021/05/27 13:48:24;;;;;;;0.60;0.60;;;13.70;99.90;;;;;;4972850;28;20466;-69
2021/05/27 13:50:52;;;;;;;0.60;0.60;;;13.80;99.90;;;;;;4965372;28;20205;-69
2021/05/27 13:53:19;;;;;;;0.60;0.60;;;13.60;99.90;;;;;;4952930;28;20270;-76
2021/05/27 13:55:51;;;;;;;0.60;0.60;;;13.50;99.90;;;;;;4964520;28;20706;-75
2021/05/27 13:58:20;;;;;;;0.60;0.60;;;13.40;99.90;;;;;;4964470;28;20272;-76
2021/05/27 14:00:48;;;;;;;0.70;0.70;;;13.40;99.90;;;;;;4965015;28;20208;-74
2021/05/27 14:03:18;;;;;;;0.70;0.70;;;13.20;99.90;;;;;;4964147;28;20197;-68
2021/05/27 14:05:46;;;;;;;0.60;0.60;;;13.10;99.90;;;;;;4974767;28;20225;-67
2021/05/27 14:08:17;;;;;;;0.60;0.60;;;12.90;99.90;;;;;;4975774;28;20662;-70
2021/05/27 14:10:44;;;;;;;0.50;0.50;;;12.80;99.90;;;;;;4959283;28;20256;-69
2021/05/27 14:13:12;;;;;;;0.70;0.70;;;12.70;99.90;;;;;;4964263;28;20216;-72
2021/05/27 14:15:40;;;;;;;0.70;0.70;;;12.80;99.90;;;;;;4965199;28;20221;-73
2021/05/27 14:18:07;;;;;;;0.60;0.60;;;12.90;99.90;;;;;;4972826;28;20574;-69
2021/05/27 14:20:35;;;;;;;0.70;0.70;;;12.90;99.90;;;;;;4972924;28;20200;-69
2021/05/27 14:23:02;;;;;;;0.60;0.60;;;13.10;99.90;;;;;;4972756;28;20200;-69
2021/05/27 14:25:30;;;;;;;0.70;0.70;;;13.20;99.90;;;;;;4954663;29;20625;-72
2021/05/27 14:27:58;;;;;;;0.70;0.70;;;13.20;99.90;;;;;;4956332;29;20559;-70
2021/05/27 14:30:25;;;;;;;0.60;0.60;;;13.40;99.90;;;;;;4955166;29;20264;-70
2021/05/27 14:32:52;;;;;;;0.60;0.60;;;13.60;99.90;;;;;;4956257;29;20682;-70
2021/05/27 14:35:20;;;;;;;0.60;0.60;;;13.70;99.90;;;;;;4961591;28;20272;-71
2021/05/27 14:37:47;;;;;;;0.68;0.68;;;13.80;99.90;;;;;;4956552;29;20208;-70
2021/05/27 14:40:15;;;;;;;0.60;0.60;;;13.80;99.90;;;;;;4956492;29;20628;-69
2021/05/27 14:42:44;;;;;;;0.70;0.70;;;13.80;99.90;;;;;;4956391;29;20241;-69
2021/05/27 14:45:12;;;;;;;0.70;0.70;;;13.70;99.90;;;;;;4955938;29;20198;-70
2021/05/27 14:47:40;;;;;;;0.70;0.70;;;13.80;99.90;;;;;;4956160;28;20193;-70
2021/05/27 14:50:09;;;;;;;0.70;0.70;;;13.90;99.90;;;;;;4958803;28;20666;-72
2021/05/27 14:52:37;;;;;;;0.50;0.50;;;14.30;99.90;;;;;;4959111;28;20201;-71
2021/05/27 14:55:05;;;;;;;0.50;0.50;;;14.90;99.90;;;;;;4962108;28;20284;-71
2021/05/27 14:57:34;;;;;;;0.60;0.60;;;14.80;99.90;;;;;;4964302;28;20252;-70
2021/05/27 15:00:04;;;;;;;0.68;0.68;;;14.60;99.90;;;;;;4970538;28;20200;-70
2021/05/27 15:02:35;;;;;;;0.60;0.60;;;14.90;99.90;;;;;;4964748;28;20197;-70
2021/05/27 15:05:04;;;;;;;0.60;0.60;;;15.00;99.90;;;;;;4971910;28;20671;-71
2021/05/27 15:07:31;;;;;;;0.60;0.60;;;15.10;99.90;;;;;;4962255;28;20197;-70
2021/05/27 15:09:59;;;;;;;0.60;0.60;;;15.00;99.90;;;;;;4971291;28;20232;-70
2021/05/27 15:12:26;;;;;;;0.45;0.45;;;15.00;99.90;;;;;;4964175;28;20193;-69
2021/05/27 15:14:53;;;;;;;0.60;0.60;;;15.00;99.90;;;;;;4961772;28;20213;-70
2021/05/27 15:17:22;;;;;;;0.50;0.50;;;14.90;99.90;;;;;;4962558;28;20728;-71
2021/05/27 15:19:49;;;;;;;0.60;0.60;;;14.70;99.90;;;;;;4965025;28;20225;-70
2021/05/27 15:22:17;;;;;;;0.60;0.60;;;14.70;99.90;;;;;;4963340;28;20201;-69
2021/05/27 15:24:46;;;;;;;0.60;0.60;;;14.60;99.90;;;;;;4963148;28;20192;-69
2021/05/27 15:27:14;;;;;;;0.60;0.60;;;14.50;99.90;;;;;;4964464;28;20225;-69
2021/05/27 15:29:41;;;;;;;0.60;0.60;;;14.30;99.90;;;;;;4974517;28;20248;-69
2021/05/27 15:32:09;;;;;;;0.60;0.60;;;14.20;99.90;;;;;;4965239;28;20197;-70
2021/05/27 15:34:38;;;;;;;0.60;0.60;;;14.00;99.90;;;;;;4965351;28;20276;-69
2021/05/27 15:37:07;;;;;;;0.50;0.50;;;14.10;99.90;;;;;;4962517;28;20221;-69
2021/05/27 15:39:34;;;;;;;0.60;0.60;;;13.90;99.90;;;;;;4962329;28;20197;-69
2021/05/27 15:42:01;;;;;;;0.60;0.60;;;13.90;99.90;;;;;;4973711;28;20338;-70
2021/05/27 15:44:29;;;;;;;0.60;0.60;;;13.90;99.90;;;;;;4968328;28;20201;-71
2021/05/27 15:46:56;;;;;;;0.50;0.50;;;13.90;99.90;;;;;;4962900;28;20292;-71
2021/05/27 15:49:24;;;;;;;0.60;0.60;;;14.00;99.90;;;;;;4955046;29;20209;-71
2021/05/27 15:51:52;;;;;;;0.60;0.60;;;13.90;99.90;;;;;;4973268;28;20260;-70
2021/05/27 15:54:19;;;;;;;0.60;0.60;;;13.90;99.90;;;;;;4974559;28;20602;-71
2021/05/27 15:56:47;;;;;;;0.60;0.60;;;14.00;99.90;;;;;;4965224;28;20242;-71
2021/05/27 15:59:14;;;;;;;0.60;0.60;;;14.00;99.90;;;;;;4968925;28;20205;-71
2021/05/27 16:01:41;;;;;;;0.60;0.60;;;13.90;99.90;;;;;;4972434;28;20614;-71
2021/05/27 16:04:09;;;;;;;0.60;0.60;;;14.00;99.90;;;;;;4963375;28;20197;-71
2021/05/27 16:06:36;;;;;;;0.60;0.60;;;13.90;99.90;;;;;;4973639;28;20276;-70
2021/05/27 16:09:05;;;;;;;0.60;0.60;;;14.00;99.90;;;;;;4971024;28;20207;-74
2021/05/27 16:11:32;;;;;;;0.60;0.60;;;13.90;99.90;;;;;;4973593;28;20205;-72
2021/05/27 16:14:00;;;;;;;0.60;0.60;;;14.00;99.90;;;;;;4972217;28;20732;-73
2021/05/27 16:16:27;;;;;;;0.60;0.60;;;14.20;99.90;;;;;;4972103;28;20224;-71
2021/05/27 16:18:55;;;;;;;0.70;0.70;;;14.50;99.90;;;;;;4972660;28;20260;-73
2021/05/27 16:21:22;;;;;;;0.50;0.50;;;14.80;99.90;;;;;;4972993;28;20200;-72
2021/05/27 16:23:49;;;;;;;0.60;0.60;;;15.20;99.90;;;;;;4972974;28;20255;-70
2021/05/27 16:26:18;;;;;;;0.60;0.60;;;15.30;99.90;;;;;;4972686;28;20240;-75
2021/05/27 16:28:45;;;;;;;0.55;0.55;;;15.60;99.90;;;;;;4979148;23;20253;-73
2021/05/27 16:31:13;;;;;;;0.60;0.60;;;15.80;99.90;;;;;;4946561;29;20252;-72
2021/05/27 16:33:43;;;;;;;0.60;0.60;;;15.90;99.90;;;;;;4954339;29;20268;-72
2021/05/27 16:38:56;;;;;;;0.50;0.50;;;16.30;99.90;;;;;;4954286;28;20229;-74
2021/05/27 16:41:24;;;;;;;0.70;0.70;;;16.40;99.90;;;;;;4954323;29;20205;-76
2021/05/27 16:43:52;;;;;;;1.00;1.00;;;17.50;99.90;;;;;;4954138;29;20264;-73
2021/05/27 16:46:22;;;;;;;0.60;0.60;;;17.50;99.90;;;;;;4953984;29;20264;-73
2021/05/27 16:48:50;;;;;;;0.50;0.50;;;17.80;99.90;;;;;;4953914;28;20229;-73
2021/05/27 16:51:17;;;;;;;0.52;0.52;;;17.80;98.60;;;;;;4954214;29;20236;-73
2021/05/27 16:53:45;;;;;;;0.82;0.82;;;17.70;99.30;;;;;;4954017;29;20208;-73
2021/05/27 16:56:12;;;;;;;0.40;0.40;;;18.00;98.10;;;;;;4954045;29;20205;-73
2021/05/27 16:58:41;;;;;;;1.10;1.10;;;17.60;98.60;;;;;;4953926;28;20225;-73
2021/05/27 17:01:08;;;;;;;1.20;1.20;;;17.80;98.30;;;;;;4953926;29;20256;-73
2021/05/27 17:03:35;;;;;;;1.00;1.00;;;18.50;96.70;;;;;;4953868;29;20737;-72
2021/05/27 17:06:03;;;;;;;0.80;0.80;;;20.00;99.60;;;;;;4953752;29;20256;-72
2021/05/27 17:08:30;;;;;;;0.70;0.70;;;20.40;99.90;;;;;;4954128;28;20225;-72
2021/05/27 17:10:58;;;;;;;0.50;0.50;;;21.00;99.90;;;;;;4953811;29;20268;-72
2021/05/27 17:13:25;;;;;;;0.50;0.50;;;21.00;90.40;;;;;;4946202;29;20210;-72
2021/05/27 17:15:54;;;;;;;1.10;1.10;;;20.30;90.00;;;;;;4940451;29;20277;-73
2021/05/27 17:18:21;;;;;;;1.00;1.00;;;20.10;89.20;;;;;;4934676;29;20221;-72